createdAt,value
2022-12-11T00:01:32.640Z,71.75
2022-12-11T00:04:38.083Z,72.03
2022-12-11T00:07:44.429Z,72.24
2022-12-11T00:10:52.885Z,72.22
2022-12-11T00:13:59.170Z,71.15
2022-12-11T00:17:07.591Z,71.62
2022-12-11T00:20:14.953Z,71.43
2022-12-11T00:23:20.755Z,71.30
2022-12-11T00:26:27.281Z,71.16
2022-12-11T00:29:32.709Z,70.99
2022-12-11T00:32:42.176Z,71.00
2022-12-11T00:35:50.464Z,71.12
2022-12-11T00:38:58.118Z,71.34
2022-12-11T00:42:03.645Z,71.39
2022-12-11T00:45:11.305Z,70.74
2022-12-11T00:48:20.684Z,71.69
2022-12-11T00:51:27.592Z,71.31
2022-12-11T00:54:34.376Z,71.24
2022-12-11T00:57:40.698Z,71.13
2022-12-11T01:00:48.477Z,71.20
2022-12-11T01:04:28.585Z,70.88
2022-12-11T01:07:34.883Z,71.26
2022-12-11T01:10:40.573Z,71.28
2022-12-11T01:13:47.176Z,71.20
2022-12-11T01:16:52.843Z,70.69
2022-12-11T01:20:01.900Z,70.91
2022-12-11T01:23:07.312Z,70.65
2022-12-11T01:26:17.882Z,71.56
2022-12-11T01:29:23.288Z,71.78
2022-12-11T01:32:31.075Z,72.31
2022-12-11T01:35:39.530Z,72.25
2022-12-11T01:38:47.723Z,71.74
2022-12-11T01:41:53.305Z,72.06
2022-12-11T01:45:45.143Z,71.36
2022-12-11T01:48:51.043Z,71.51
2022-12-11T01:52:09.460Z,71.83
2022-12-11T01:55:15.594Z,72.15
2022-12-11T01:58:25.352Z,71.58
2022-12-11T02:01:40.136Z,71.76
2022-12-11T02:04:50.203Z,72.17
2022-12-11T02:08:04.018Z,72.35
2022-12-11T02:11:23.347Z,72.84
2022-12-11T02:14:42.436Z,72.93
2022-12-11T02:18:00.784Z,73.05
2022-12-11T02:21:18.688Z,72.91
2022-12-11T02:24:53.660Z,73.30
2022-12-11T02:28:19.331Z,73.94
2022-12-11T02:31:37.277Z,73.81
2022-12-11T02:34:51.225Z,74.14
2022-12-11T02:38:05.929Z,73.45
2022-12-11T02:41:15.614Z,73.50
2022-12-11T02:44:33.508Z,72.58
2022-12-11T02:47:42.584Z,72.87
2022-12-11T02:50:56.657Z,73.05
2022-12-11T02:54:03.981Z,73.79
2022-12-11T02:57:19.865Z,73.61
2022-12-11T03:00:28.052Z,73.11
2022-12-11T03:03:34.521Z,73.29
2022-12-11T03:06:50.239Z,72.15
2022-12-11T03:09:57.400Z,72.16
2022-12-11T03:13:05.744Z,72.27
2022-12-11T03:16:29.778Z,72.87
2022-12-11T03:19:43.361Z,73.42
2022-12-11T03:22:57.216Z,73.69
2022-12-11T03:26:08.415Z,73.54
2022-12-11T03:29:24.215Z,72.60
2022-12-11T03:32:43.613Z,73.14
2022-12-11T03:35:59.094Z,72.93
2022-12-11T03:39:12.535Z,72.65
2022-12-11T03:42:24.793Z,72.16
2022-12-11T03:45:33.762Z,71.65
2022-12-11T03:48:49.511Z,71.41
2022-12-11T03:52:01.148Z,72.62
2022-12-11T03:55:11.172Z,72.52
2022-12-11T03:58:16.772Z,72.50
2022-12-11T04:01:23.555Z,72.83
2022-12-11T04:04:32.201Z,72.27
2022-12-11T04:07:39.046Z,72.28
2022-12-11T04:10:45.657Z,72.18
2022-12-11T04:14:12.673Z,72.09
2022-12-11T04:17:35.721Z,72.34
2022-12-11T04:20:59.557Z,73.12
2022-12-11T04:24:19.957Z,73.35
2022-12-11T04:27:42.646Z,72.46
2022-12-11T04:30:52.798Z,72.49
2022-12-11T04:33:59.155Z,72.37
2022-12-11T04:37:07.288Z,72.42
2022-12-11T04:40:17.924Z,71.84
2022-12-11T04:43:23.258Z,72.42
2022-12-11T04:46:29.543Z,72.65
2022-12-11T04:49:35.009Z,72.71
2022-12-11T04:52:44.370Z,72.51
2022-12-11T04:55:49.804Z,71.88
2022-12-11T04:58:55.983Z,71.99
2022-12-11T05:02:01.405Z,71.68
2022-12-11T05:05:13.044Z,71.39
2022-12-11T05:08:22.369Z,71.59
2022-12-11T05:11:28.656Z,72.79
2022-12-11T05:14:34.056Z,72.59
2022-12-11T05:17:40.681Z,72.39
2022-12-11T05:20:46.493Z,71.63
2022-12-11T05:23:55.534Z,71.93
2022-12-11T05:27:00.904Z,72.59
2022-12-11T05:30:08.801Z,71.71
2022-12-11T05:33:14.221Z,72.78
2022-12-11T05:36:25.025Z,73.01
2022-12-11T05:39:33.359Z,73.22
2022-12-11T05:42:39.641Z,72.88
2022-12-11T05:45:45.014Z,72.74
2022-12-11T05:48:55.236Z,71.60
2022-12-11T05:52:00.623Z,72.28
2022-12-11T05:55:11.393Z,71.35
2022-12-11T05:58:17.082Z,71.40
2022-12-11T06:01:27.139Z,72.38
2022-12-11T06:04:32.951Z,72.58
2022-12-11T06:07:39.502Z,71.42
2022-12-11T06:10:53.278Z,71.52
2022-12-11T06:14:00.341Z,72.19
2022-12-11T06:17:05.685Z,71.99
2022-12-11T06:20:13.076Z,71.20
2022-12-11T06:23:19.190Z,70.85
2022-12-11T06:26:29.935Z,71.48
2022-12-11T06:29:35.918Z,71.80
2022-12-11T06:32:42.261Z,72.29
2022-12-11T06:35:47.658Z,71.31
2022-12-11T06:38:56.484Z,72.08
2022-12-11T06:42:04.623Z,71.50
2022-12-11T06:45:13.833Z,72.08
2022-12-11T06:48:19.591Z,72.38
2022-12-11T06:51:26.862Z,72.01
2022-12-11T06:54:32.227Z,71.90
2022-12-11T06:57:41.167Z,72.08
2022-12-11T07:00:49.219Z,71.45
2022-12-11T07:03:57.916Z,71.47
2022-12-11T07:07:04.398Z,71.93
2022-12-11T07:10:12.574Z,70.88
2022-12-11T07:13:20.705Z,70.63
2022-12-11T07:16:27.067Z,71.91
2022-12-11T07:19:32.433Z,72.11
2022-12-11T07:22:44.643Z,71.64
2022-12-11T07:25:54.765Z,71.18
2022-12-11T07:29:04.937Z,71.51
2022-12-11T07:32:10.900Z,71.38
2022-12-11T07:35:17.296Z,70.51
2022-12-11T07:38:22.627Z,71.26
2022-12-11T07:41:29.045Z,70.59
2022-12-11T07:44:37.400Z,69.67
2022-12-11T07:47:46.978Z,70.21
2022-12-11T07:50:53.342Z,70.26
2022-12-11T07:54:03.304Z,69.34
2022-12-11T07:57:14.220Z,70.17
2022-12-11T08:00:23.776Z,70.05
2022-12-11T08:03:29.201Z,70.10
2022-12-11T08:06:38.720Z,70.35
2022-12-11T08:09:44.329Z,70.21
2022-12-11T08:12:50.604Z,69.93
2022-12-11T08:15:58.737Z,70.23
2022-12-11T08:19:04.950Z,69.78
2022-12-11T08:22:15.721Z,70.94
2022-12-11T08:25:30.784Z,70.64
2022-12-11T08:28:36.727Z,69.38
2022-12-11T08:31:46.141Z,69.81
2022-12-11T08:34:53.816Z,69.38
2022-12-11T08:38:00.431Z,69.25
2022-12-11T08:41:12.836Z,69.88
2022-12-11T08:44:20.012Z,69.46
2022-12-11T08:47:30.203Z,69.55
2022-12-11T08:50:36.543Z,68.54
2022-12-11T08:53:42.650Z,68.98
2022-12-11T08:56:52.302Z,68.65
2022-12-11T09:00:00.343Z,68.32
2022-12-11T09:03:12.772Z,67.79
2022-12-11T09:06:22.851Z,67.62
2022-12-11T09:09:29.466Z,67.58
2022-12-11T09:12:36.671Z,68.32
2022-12-11T09:15:44.670Z,68.00
2022-12-11T09:18:57.452Z,68.03
2022-12-11T09:22:03.692Z,69.34
2022-12-11T09:25:10.767Z,68.65
2022-12-11T09:28:17.666Z,68.29
2022-12-11T09:31:26.979Z,69.51
2022-12-11T09:34:36.476Z,69.18
2022-12-11T09:37:41.865Z,68.87
2022-12-11T09:40:48.081Z,68.04
2022-12-11T09:44:05.489Z,67.64
2022-12-11T09:47:35.005Z,67.80
2022-12-11T09:50:44.348Z,66.79
2022-12-11T09:53:51.823Z,67.56
2022-12-11T09:57:15.365Z,67.37
2022-12-11T10:00:33.595Z,66.96
2022-12-11T10:04:08.993Z,67.61
2022-12-11T10:07:30.699Z,67.72
2022-12-11T10:10:47.417Z,66.58
2022-12-11T10:14:11.302Z,65.99
2022-12-11T10:17:29.056Z,66.32
2022-12-11T10:20:40.485Z,66.43
2022-12-11T10:23:57.316Z,66.65
2022-12-11T10:27:21.616Z,66.61
2022-12-11T10:30:34.469Z,66.67
2022-12-11T10:34:03.523Z,66.61
2022-12-11T10:37:09.108Z,67.66
2022-12-11T10:40:25.919Z,67.03
2022-12-11T10:43:42.493Z,68.00
2022-12-11T10:46:52.623Z,67.05
2022-12-11T10:50:02.454Z,67.46
2022-12-11T10:53:09.121Z,68.21
2022-12-11T10:56:17.630Z,67.03
2022-12-11T10:59:35.797Z,66.41
2022-12-11T11:02:44.667Z,67.16
2022-12-11T11:05:51.383Z,67.20
2022-12-11T11:09:00.420Z,67.33
2022-12-11T11:12:24.543Z,66.63
2022-12-11T11:15:33.506Z,67.23
2022-12-11T11:18:41.890Z,67.46
2022-12-11T11:21:55.484Z,66.27
2022-12-11T11:25:05.084Z,67.33
2022-12-11T11:28:26.961Z,67.31
2022-12-11T11:31:38.879Z,67.06
2022-12-11T11:34:44.832Z,66.72
2022-12-11T11:38:07.938Z,66.62
2022-12-11T11:41:22.905Z,67.55
2022-12-11T11:44:41.059Z,66.73
2022-12-11T11:48:00.072Z,66.33
2022-12-11T11:51:19.268Z,66.91
2022-12-11T11:54:37.620Z,65.89
2022-12-11T11:57:56.534Z,66.89
2022-12-11T12:01:04.728Z,67.21
2022-12-11T12:04:12.242Z,67.59
2022-12-11T12:07:40.325Z,67.07
2022-12-11T12:11:01.228Z,67.37
2022-12-11T12:14:50.556Z,67.69
2022-12-11T12:17:57.768Z,68.05
2022-12-11T12:21:22.111Z,67.46
2022-12-11T12:24:46.922Z,68.70
2022-12-11T12:28:08.060Z,68.56
2022-12-11T12:31:47.282Z,68.23
2022-12-11T12:35:17.127Z,67.65
2022-12-11T12:38:38.055Z,68.69
2022-12-11T12:42:07.265Z,67.01
2022-12-11T12:45:31.636Z,66.75
2022-12-11T12:48:37.645Z,67.52
2022-12-11T12:51:48.766Z,67.66
2022-12-11T12:55:18.967Z,66.67
2022-12-11T12:58:32.056Z,66.90
2022-12-11T13:01:37.564Z,66.78
2022-12-11T13:04:55.979Z,67.91
2022-12-11T13:08:08.849Z,67.38
2022-12-11T13:11:23.834Z,66.99
2022-12-11T13:14:33.952Z,67.47
2022-12-11T13:17:42.260Z,66.98
2022-12-11T13:20:53.342Z,67.76
2022-12-11T13:24:19.811Z,66.44
2022-12-11T13:27:29.484Z,67.72
2022-12-11T13:30:36.532Z,67.69
2022-12-11T13:33:49.507Z,67.55
2022-12-11T13:37:00.845Z,67.85
2022-12-11T13:40:20.337Z,67.62
2022-12-11T13:43:32.228Z,68.43
2022-12-11T13:46:42.813Z,67.88
2022-12-11T13:50:03.445Z,67.30
2022-12-11T13:53:08.861Z,67.73
2022-12-11T13:56:23.147Z,68.39
2022-12-11T13:59:33.288Z,68.21
2022-12-11T14:02:44.275Z,67.82
2022-12-11T14:05:49.829Z,67.36
2022-12-11T14:09:01.869Z,67.29
2022-12-11T14:12:10.642Z,67.02
2022-12-11T14:15:19.713Z,67.00
2022-12-11T14:18:30.548Z,66.98
2022-12-11T14:21:38.032Z,67.88
2022-12-11T14:24:53.647Z,68.04
2022-12-11T14:28:04.727Z,68.30
2022-12-11T14:31:10.898Z,67.83
2022-12-11T14:34:24.063Z,68.18
2022-12-11T14:37:31.344Z,68.45
2022-12-11T14:40:46.728Z,67.44
2022-12-11T14:44:02.581Z,68.64
2022-12-11T14:47:20.021Z,68.88
2022-12-11T14:50:34.267Z,68.16
2022-12-11T14:53:50.207Z,69.15
2022-12-11T14:56:58.108Z,69.11
2022-12-11T15:00:09.925Z,69.28
2022-12-11T15:03:27.751Z,68.17
2022-12-11T15:06:37.460Z,68.34
2022-12-11T15:09:43.772Z,69.31
2022-12-11T15:12:50.196Z,68.69
2022-12-11T15:16:00.471Z,68.30
2022-12-11T15:19:08.796Z,67.71
2022-12-11T15:22:20.589Z,68.34
2022-12-11T15:25:32.997Z,68.41
2022-12-11T15:28:42.138Z,67.28
2022-12-11T15:32:02.761Z,68.17
2022-12-11T15:35:26.144Z,67.88
2022-12-11T15:38:39.763Z,68.25
2022-12-11T15:41:46.512Z,68.17
2022-12-11T15:44:53.132Z,68.14
2022-12-11T15:48:01.341Z,67.57
2022-12-11T15:51:08.709Z,67.67
2022-12-11T15:54:14.395Z,67.97
2022-12-11T15:57:26.001Z,68.04
2022-12-11T16:00:31.944Z,68.15
2022-12-11T16:03:41.280Z,68.39
2022-12-11T16:06:47.171Z,67.60
2022-12-11T16:09:53.803Z,68.95
2022-12-11T16:12:59.931Z,67.74
2022-12-11T16:16:06.571Z,68.36
2022-12-11T16:19:15.530Z,68.12
2022-12-11T16:22:21.728Z,68.61
2022-12-11T16:25:27.829Z,69.50
2022-12-11T16:28:34.098Z,69.60
2022-12-11T16:31:39.501Z,69.15
2022-12-11T16:34:48.679Z,68.75
2022-12-11T16:37:55.619Z,68.25
2022-12-11T16:41:06.104Z,68.27
2022-12-11T16:44:11.550Z,68.12
2022-12-11T16:47:18.121Z,68.30
2022-12-11T16:50:26.694Z,68.56
2022-12-11T16:53:33.101Z,67.98
2022-12-11T16:56:38.899Z,68.13
2022-12-11T16:59:50.906Z,68.48
2022-12-11T17:02:57.450Z,67.88
2022-12-11T17:06:10.561Z,68.02
2022-12-11T17:09:16.524Z,67.57
2022-12-11T17:12:27.926Z,67.79
2022-12-11T17:15:33.352Z,68.73
2022-12-11T17:18:40.397Z,68.65
2022-12-11T17:21:51.788Z,68.36
2022-12-11T17:24:58.374Z,68.65
2022-12-11T17:28:03.796Z,68.44
2022-12-11T17:31:13.037Z,68.54
2022-12-11T17:34:18.963Z,68.30
2022-12-11T17:37:27.974Z,68.36
2022-12-11T17:40:33.424Z,67.68
2022-12-11T17:43:39.795Z,68.84
2022-12-11T17:46:45.223Z,68.19
2022-12-11T17:49:51.592Z,68.13
2022-12-11T17:53:00.087Z,68.12
2022-12-11T17:56:10.915Z,69.30
2022-12-11T17:59:16.505Z,70.07
2022-12-11T18:02:22.993Z,70.02
2022-12-11T18:05:28.960Z,68.62
2022-12-11T18:08:39.043Z,69.23
2022-12-11T18:11:44.841Z,70.23
2022-12-11T18:14:51.189Z,69.91
2022-12-11T18:18:00.005Z,69.32
2022-12-11T18:21:09.811Z,69.20
2022-12-11T18:24:21.160Z,68.55
2022-12-11T18:27:28.106Z,69.42
2022-12-11T18:30:33.565Z,68.73
2022-12-11T18:33:41.928Z,68.83
2022-12-11T18:36:47.278Z,68.23
2022-12-11T18:39:56.677Z,68.91
2022-12-11T18:43:02.090Z,68.18
2022-12-11T18:46:10.749Z,68.88
2022-12-11T18:49:16.214Z,67.63
2022-12-11T18:52:22.666Z,68.08
2022-12-11T18:55:30.995Z,68.06
2022-12-11T18:58:37.813Z,68.43
2022-12-11T19:01:43.426Z,67.84
2022-12-11T19:04:49.756Z,67.73
2022-12-11T19:07:55.192Z,68.12
2022-12-11T19:11:04.211Z,68.18
2022-12-11T19:14:11.480Z,68.37
2022-12-11T19:17:18.003Z,67.86
2022-12-11T19:20:47.883Z,67.88
2022-12-11T19:23:50.097Z,67.16
2022-12-11T19:26:58.376Z,67.26
2022-12-11T19:30:04.639Z,67.26
2022-12-11T19:33:10.298Z,67.94
2022-12-11T19:36:20.188Z,67.81
2022-12-11T19:39:25.889Z,68.08
2022-12-11T19:42:34.926Z,68.49
2022-12-11T19:45:41.683Z,68.43
2022-12-11T19:48:51.792Z,68.12
2022-12-11T19:51:57.551Z,68.06
2022-12-11T19:55:07.467Z,67.88
2022-12-11T19:58:15.819Z,68.57
2022-12-11T20:01:26.116Z,67.95
2022-12-11T20:04:31.585Z,68.23
2022-12-11T20:07:38.860Z,69.22
2022-12-11T20:10:44.386Z,68.36
2022-12-11T20:13:55.697Z,69.02
2022-12-11T20:17:11.873Z,68.61
2022-12-11T20:20:19.931Z,68.41
2022-12-11T20:23:25.360Z,67.63
2022-12-11T20:26:32.724Z,68.43
2022-12-11T20:29:41.269Z,68.11
2022-12-11T20:32:48.282Z,67.51
2022-12-11T20:35:53.914Z,68.02
2022-12-11T20:39:04.059Z,68.15
2022-12-11T20:42:12.949Z,68.22
2022-12-11T20:45:22.379Z,68.99
2022-12-11T20:48:27.748Z,68.30
2022-12-11T20:51:34.100Z,68.85
2022-12-11T20:54:39.551Z,68.22
2022-12-11T20:57:46.602Z,67.72
2022-12-11T21:00:55.242Z,68.03
2022-12-11T21:04:03.667Z,67.59
2022-12-11T21:07:09.724Z,67.76
2022-12-11T21:10:16.719Z,68.28
2022-12-11T21:13:22.472Z,67.70
2022-12-11T21:16:31.982Z,67.88
2022-12-11T21:19:37.443Z,67.54
2022-12-11T21:22:43.695Z,67.88
2022-12-11T21:25:49.052Z,67.88
2022-12-11T21:28:55.757Z,68.32
2022-12-11T21:32:04.823Z,68.77
2022-12-11T21:35:12.833Z,68.76
2022-12-11T21:38:18.419Z,68.13
2022-12-11T21:41:27.395Z,68.42
2022-12-11T21:48:03.562Z,68.96
2022-12-11T21:51:15.753Z,67.96
2022-12-11T21:54:22.740Z,68.59
2022-12-11T21:57:29.067Z,68.20
2022-12-11T22:00:35.352Z,67.87
2022-12-11T22:03:43.537Z,67.89
2022-12-11T22:06:50.239Z,68.29
2022-12-11T22:09:55.750Z,68.26
2022-12-11T22:13:02.017Z,67.73
2022-12-11T22:16:07.798Z,68.85
2022-12-11T22:19:17.574Z,68.82
2022-12-11T22:22:23.641Z,68.09
2022-12-11T22:25:29.917Z,67.59
2022-12-11T22:28:35.387Z,67.99
2022-12-11T22:31:41.773Z,67.82
2022-12-11T22:34:49.950Z,66.91
2022-12-11T22:37:56.473Z,67.33
2022-12-11T22:41:03.197Z,67.46
2022-12-11T22:44:09.473Z,68.08
2022-12-11T22:47:15.011Z,67.48
2022-12-11T22:50:24.444Z,67.41
2022-12-11T22:53:29.816Z,68.12
2022-12-11T22:56:36.540Z,67.73
2022-12-11T22:59:50.468Z,67.48
2022-12-11T23:02:56.973Z,67.40
2022-12-11T23:06:09.748Z,66.83
2022-12-11T23:09:16.241Z,67.84
2022-12-11T23:12:21.684Z,66.84
2022-12-11T23:15:27.967Z,66.55
2022-12-11T23:18:33.308Z,67.38
2022-12-11T23:21:42.563Z,66.90
2022-12-11T23:24:48.007Z,67.36
2022-12-11T23:27:54.331Z,67.68
2022-12-11T23:30:59.863Z,67.81
2022-12-11T23:34:06.533Z,67.16
2022-12-11T23:37:14.702Z,67.81
2022-12-11T23:40:21.331Z,68.49
2022-12-11T23:43:26.871Z,68.26
2022-12-11T23:46:34.659Z,68.82
2022-12-11T23:49:40.380Z,68.45
2022-12-11T23:52:49.617Z,67.35
2022-12-11T23:55:55.347Z,67.77
2022-12-11T23:59:01.905Z,68.89
